Time;durP1;ratioP1;P1;durP2;ratioP2;P2;SDS_P1;SDS_P2;PMS_P1;PMS_P2;Temp;Humidity;BMP_temperature;BMP_pressure;BME280_temperature;BME280_humidity;BME280_pressure;Samples;Min_cycle;Max_cycle;Signal;HPM_P1;HPM_P2
2022/08/05 00:08:36;;;;;;;7.80;2.65;;;;;;;26.68;48.81;99923.84;20906120;28;20056;-67
2022/08/05 00:18:38;;;;;;;9.80;2.70;;;;;;;26.91;50.14;99947.78;20905774;28;20053;-67
2022/08/05 00:28:39;;;;;;;11.75;3.72;;;;;;;27.02;51.10;99953.88;20905147;28;20076;-66
2022/08/05 00:38:41;;;;;;;8.73;2.97;;;;;;;27.00;51.73;99960.38;20903807;28;20049;-66
2022/08/05 00:48:42;;;;;;;9.68;2.63;;;;;;;26.80;52.82;99954.97;20903386;28;20470;-66
2022/08/05 00:58:51;;;;;;;11.40;2.72;;;;;;;26.86;52.29;99932.06;20903497;28;20139;-66
2022/08/05 01:08:53;;;;;;;8.77;2.85;;;;;;;26.72;53.81;99909.16;20902392;28;20761;-66
2022/08/05 01:18:55;;;;;;;12.30;2.90;;;;;;;26.56;54.33;99931.19;20901636;28;20049;-66
2022/08/05 01:28:56;;;;;;;6.72;2.83;;;;;;;26.33;56.26;99926.97;20900034;28;20083;-66
2022/08/05 01:39:04;;;;;;;8.32;2.60;;;;;;;26.22;57.50;99924.41;20899671;28;20084;-66
2022/08/05 01:49:08;;;;;;;6.63;3.17;;;;;;;26.17;57.55;99945.44;20898412;28;20537;-66
2022/08/05 01:59:24;;;;;;;9.25;3.75;;;;;;;26.10;58.96;99961.22;20898185;28;20056;-67
2022/08/05 02:09:26;;;;;;;10.43;3.00;;;;;;;25.83;61.40;99996.66;20897502;28;20041;-68
2022/08/05 02:19:28;;;;;;;5.47;2.80;;;;;;;25.67;63.38;99998.91;20896152;28;20076;-70
2022/08/05 02:29:34;;;;;;;6.57;2.70;;;;;;;25.68;63.61;99990.75;20894917;28;20056;-68
2022/08/05 02:39:56;;;;;;;8.50;3.38;;;;;;;25.41;65.51;100017.22;20894209;28;20099;-67
2022/08/05 02:49:57;;;;;;;10.40;3.40;;;;;;;25.48;65.25;99983.53;20893804;28;20448;-67
2022/08/05 03:00:01;;;;;;;7.70;2.93;;;;;;;25.25;68.38;99930.06;20893938;28;20061;-69
2022/08/05 03:10:02;;;;;;;7.18;3.35;;;;;;;25.43;66.69;99932.13;20893832;28;20315;-69
2022/08/05 03:20:04;;;;;;;8.35;3.28;;;;;;;25.28;71.83;99975.34;20893752;28;20049;-68
2022/08/05 03:30:06;;;;;;;13.32;4.05;;;;;;;24.64;89.57;100052.91;20892848;28;20049;-68
2022/08/05 03:40:09;;;;;;;6.43;4.13;;;;;;;24.36;100.00;100045.34;20893369;28;20095;-68
2022/08/05 03:50:12;;;;;;;9.00;4.37;;;;;;;24.22;100.00;100071.34;20898042;28;20555;-67
2022/08/05 04:00:14;;;;;;;6.90;4.53;;;;;;;23.76;100.00;100104.28;20907180;28;20057;-69
2022/08/05 04:10:16;;;;;;;15.25;5.57;;;;;;;23.53;100.00;100147.88;20907125;28;20726;-69
2022/08/05 04:20:18;;;;;;;11.05;4.03;;;;;;;23.59;92.13;100168.81;20905725;28;20056;-67
2022/08/05 04:30:20;;;;;;;7.22;2.55;;;;;;;24.09;72.33;100198.97;20904320;28;20053;-68
2022/08/05 04:40:21;;;;;;;6.93;2.70;;;;;;;24.27;69.74;100208.28;20904222;28;20413;-67
2022/08/05 04:50:23;;;;;;;5.10;2.42;;;;;;;24.16;70.19;100245.72;20903567;28;20052;-67
2022/08/05 05:00:44;;;;;;;4.93;2.50;;;;;;;24.26;69.53;100261.94;20903603;28;20071;-67
2022/08/05 05:10:50;;;;;;;4.50;2.42;;;;;;;24.62;68.23;100244.91;20902576;28;20053;-66
2022/08/05 05:20:56;;;;;;;4.75;2.20;;;;;;;25.18;64.90;100245.03;20900276;28;20056;-67
2022/08/05 05:30:58;;;;;;;5.05;2.60;;;;;;;25.25;64.79;100243.59;20899368;28;20045;-69
2022/08/05 05:41:00;;;;;;;5.30;2.20;;;;;;;25.12;62.02;100234.81;20899990;28;20048;-68
2022/08/05 05:51:02;;;;;;;6.18;2.17;;;;;;;25.18;65.80;100257.59;20897961;28;20053;-69
2022/08/05 06:01:16;;;;;;;;;;;;;;;25.05;69.01;100252.28;20896395;28;20052;-68
2022/08/05 06:11:23;;;;;;;5.40;3.00;;;;;;;25.08;68.87;100246.75;20896704;28;20369;-68
2022/08/05 06:21:26;;;;;;;4.10;2.20;;;;;;;25.11;65.92;100270.63;20895447;28;20250;-68
2022/08/05 06:31:37;;;;;;;5.75;2.17;;;;;;;25.30;65.04;100268.19;20877419;28;20414;-67
2022/08/05 06:41:42;;;;;;;4.05;2.20;;;;;;;25.52;62.42;100267.31;20865877;28;20783;-70
2022/08/05 06:51:43;;;;;;;6.32;2.30;;;;;;;25.85;58.08;100279.00;20835190;28;20492;-68
2022/08/05 07:01:45;;;;;;;5.63;2.17;;;;;;;26.41;54.97;100302.16;20836094;28;20046;-68
2022/08/05 07:11:54;;;;;;;5.25;2.35;;;;;;;26.51;52.50;100311.19;20842930;28;20505;-68
2022/08/05 07:22:00;;;;;;;4.28;2.30;;;;;;;26.85;52.62;100304.66;20898429;28;20075;-70
2022/08/05 07:32:02;;;;;;;5.82;2.28;;;;;;;26.59;52.66;100322.13;20910819;28;20127;-68
2022/08/05 07:42:04;;;;;;;4.55;2.10;;;;;;;27.20;49.21;100300.78;20910334;28;20139;-69
2022/08/05 07:52:14;;;;;;;4.53;2.45;;;;;;;27.28;50.04;100314.44;20909386;28;20057;-69
2022/08/05 08:02:18;;;;;;;4.50;2.10;;;;;;;27.54;49.22;100309.44;20907849;28;20106;-71
2022/08/05 08:12:27;;;;;;;4.25;2.00;;;;;;;28.35;45.80;100247.47;20907124;28;20512;-69
2022/08/05 08:22:48;;;;;;;3.65;1.58;;;;;;;28.19;45.28;100207.63;20907588;28;20041;-69
2022/08/05 08:32:49;;;;;;;3.72;2.17;;;;;;;27.57;48.13;100181.91;20905174;28;20049;-69
2022/08/05 08:42:51;;;;;;;5.63;2.17;;;;;;;27.14;51.72;100188.44;20905773;28;20055;-69
2022/08/05 08:52:53;;;;;;;5.85;2.10;;;;;;;27.85;45.83;100173.06;20906137;28;20504;-70
2022/08/05 09:02:55;;;;;;;3.93;2.00;;;;;;;27.89;45.18;100199.72;20904090;28;20052;-70
2022/08/05 09:12:59;;;;;;;4.20;1.85;;;;;;;27.64;46.83;100215.31;20902480;28;20063;-67
2022/08/05 09:23:05;;;;;;;4.50;1.95;;;;;;;28.29;45.62;100213.88;20902196;28;20045;-67
2022/08/05 09:33:09;;;;;;;4.05;1.80;;;;;;;28.64;42.88;100228.59;20900557;28;20083;-69
2022/08/05 09:43:17;;;;;;;4.18;2.10;;;;;;;28.77;42.78;100234.53;20901007;28;20049;-69
2022/08/05 09:53:20;;;;;;;;;;;;;;;28.92;42.71;100223.28;20900448;28;20045;-69
2022/08/05 10:03:41;;;;;;;5.25;1.88;;;;;;;28.81;41.83;100219.78;20898973;28;19921;-71
2022/08/05 10:13:59;;;;;;;5.30;2.13;;;;;;;28.61;42.54;100216.28;20898477;28;20049;-68
2022/08/05 10:24:00;;;;;;;5.18;2.15;;;;;;;29.09;41.06;100222.56;20897352;28;20432;-68
2022/08/05 10:34:07;;;;;;;4.00;2.15;;;;;;;28.87;41.45;100216.47;20895837;28;20053;-68
2022/08/05 10:44:09;;;;;;;5.43;1.77;;;;;;;29.17;40.59;100217.25;20896410;28;20053;-68
2022/08/05 10:54:10;;;;;;;3.35;1.60;;;;;;;29.87;39.31;100214.91;20894665;28;20049;-68
2022/08/05 11:04:31;;;;;;;3.33;1.95;;;;;;;30.10;39.47;100215.31;20895586;28;20394;-68
2022/08/05 11:14:37;;;;;;;4.53;2.00;;;;;;;29.11;41.76;100228.66;20895114;28;20750;-68
2022/08/05 11:24:59;;;;;;;4.90;2.20;;;;;;;29.48;41.30;100235.88;20894390;28;20049;-68
2022/08/05 11:35:20;;;;;;;5.30;2.20;;;;;;;29.97;40.79;100225.66;20893976;28;20037;-68
2022/08/05 11:45:26;;;;;;;4.53;2.10;;;;;;;29.44;41.41;100237.16;20894283;28;20519;-68
2022/08/05 11:55:47;;;;;;;4.40;2.63;;;;;;;29.69;40.77;100236.47;20893663;28;20049;-68
2022/08/05 12:05:53;;;;;;;4.82;2.33;;;;;;;29.54;41.42;100243.34;20893279;28;20086;-68
2022/08/05 12:15:55;;;;;;;4.10;2.30;;;;;;;29.90;41.38;100228.97;20905209;28;20574;-68
2022/08/05 12:25:58;;;;;;;5.55;2.55;;;;;;;30.06;42.94;100232.81;20906601;28;20048;-68
2022/08/05 12:35:59;;;;;;;5.45;2.78;;;;;;;30.11;43.11;100235.91;20905449;28;20056;-68
2022/08/05 12:46:01;;;;;;;5.93;2.30;;;;;;;29.83;44.57;100249.47;20905786;28;20497;-71
2022/08/05 12:56:02;;;;;;;5.72;3.05;;;;;;;29.42;46.36;100263.44;20903963;28;20049;-70
2022/08/05 13:06:04;;;;;;;5.63;3.00;;;;;;;29.63;46.10;100264.94;20903151;28;20055;-69
2022/08/05 13:16:05;;;;;;;6.05;3.22;;;;;;;29.29;46.43;100272.72;20910648;22;20414;-77
2022/08/05 13:26:10;;;;;;;6.43;3.45;;;;;;;29.13;48.12;100284.13;20749760;28;20053;-77
2022/08/05 13:36:13;;;;;;;;;;;;;;;28.82;48.49;100278.06;20752686;28;20057;-78
2022/08/05 13:46:15;;;;;;;5.60;3.15;;;;;;;28.70;49.11;100287.31;20739538;28;19930;-80
2022/08/05 13:56:37;;;;;;;4.80;2.80;;;;;;;28.70;49.57;100275.66;20738263;28;20124;-75
2022/08/05 14:06:38;;;;;;;4.65;2.92;;;;;;;28.41;49.63;100273.88;20736134;28;20518;-78
2022/08/05 14:16:49;;;;;;;6.47;3.83;;;;;;;28.60;48.83;100260.38;20742077;28;20136;-77
2022/08/05 14:26:55;;;;;;;7.60;3.97;;;;;;;28.78;49.61;100257.78;20744396;28;20069;-77
2022/08/05 14:37:16;;;;;;;9.05;3.80;;;;;;;29.23;47.95;100250.91;20742562;28;20061;-81
2022/08/05 14:47:18;;;;;;;6.03;3.15;;;;;;;29.17;47.12;100257.69;20734822;28;20056;-78
2022/08/05 14:57:39;;;;;;;6.88;3.10;;;;;;;28.63;47.32;100256.53;20735488;28;20399;-78
2022/08/05 15:07:56;;;;;;;5.38;2.78;;;;;;;28.45;47.66;100261.78;20731995;28;20506;-78
2022/08/05 15:18:12;;;;;;;5.40;2.70;;;;;;;28.45;47.40;100271.72;20733566;28;20050;-76
2022/08/05 15:28:17;;;;;;;4.57;2.60;;;;;;;28.32;47.59;100280.91;20734442;28;20054;-78
2022/08/05 15:38:18;;;;;;;4.35;2.45;;;;;;;28.44;47.86;100292.41;20733735;28;20064;-79
2022/08/05 15:48:36;;;;;;;4.10;2.25;;;;;;;27.95;49.64;100304.09;20744582;28;20556;-76
2022/08/05 15:58:54;;;;;;;6.13;2.63;;;;;;;27.69;51.04;100323.38;20748100;28;20517;-76
2022/08/05 16:08:56;;;;;;;5.40;3.20;;;;;;;27.31;54.54;100334.81;20767538;28;20136;-75
2022/08/05 16:18:58;;;;;;;13.70;5.68;;;;;;;25.37;68.95;100385.63;20813198;28;20570;-76
2022/08/05 16:29:00;;;;;;;12.88;8.57;;;;;;;25.02;67.75;100399.91;20763631;28;20050;-76
2022/08/05 16:39:02;;;;;;;9.77;5.55;;;;;;;24.41;62.81;100416.03;20762863;28;20513;-75
2022/08/05 16:49:04;;;;;;;10.65;4.20;;;;;;;24.45;57.85;100438.06;20739036;28;20085;-75
2022/08/05 16:59:07;;;;;;;7.03;4.82;;;;;;;24.17;57.99;100433.84;20735708;28;20551;-75
2022/08/05 17:09:09;;;;;;;9.13;4.88;;;;;;;23.92;58.31;100448.09;20797688;28;20053;-76
2022/08/05 17:19:10;;;;;;;7.43;4.72;;;;;;;23.80;57.99;100447.13;20817995;28;20049;-76
2022/08/05 17:29:12;;;;;;;6.63;4.78;;;;;;;23.46;59.43;100461.94;20815470;28;20498;-79
2022/08/05 17:39:13;;;;;;;8.02;4.80;;;;;;;23.51;59.12;100489.22;20814735;28;20557;-76
2022/08/05 17:49:24;;;;;;;8.25;5.00;;;;;;;23.21;61.58;100493.00;20793737;28;20060;-75
2022/08/05 17:59:46;;;;;;;10.40;5.03;;;;;;;23.50;60.77;100506.22;20803933;28;20045;-76
2022/08/05 18:10:03;;;;;;;10.82;4.43;;;;;;;23.19;60.66;100526.13;20804199;28;20053;-76
2022/08/05 18:20:11;;;;;;;7.47;3.42;;;;;;;23.09;61.48;100541.88;20816270;28;20077;-76
2022/08/05 18:30:15;;;;;;;9.10;4.25;;;;;;;22.41;68.38;100547.13;20819935;28;20053;-76
2022/08/05 18:40:16;;;;;;;8.48;4.38;;;;;;;22.43;69.42;100566.59;20818960;28;20497;-76
2022/08/05 19:01:18;;;;;;;5.10;3.25;;;;;;;22.39;71.61;100602.41;20804431;28;20073;-76
2022/08/05 19:11:33;;;;;;;4.18;2.58;;;;;;;22.11;72.06;100629.88;20810856;28;20049;-76
2022/08/05 19:21:55;;;;;;;4.50;2.28;;;;;;;22.41;69.15;100653.84;20876638;22;20456;-67
2022/08/05 19:31:59;;;;;;;3.23;1.80;;;;;;;22.06;70.42;100656.81;20906566;28;20073;-65
2022/08/05 19:42:01;;;;;;;2.95;1.50;;;;;;;22.11;68.05;100664.53;20906949;28;20053;-65
2022/08/05 19:52:09;;;;;;;3.83;1.42;;;;;;;22.25;65.28;100700.13;20906800;28;20178;-66
2022/08/05 20:02:32;;;;;;;3.42;1.50;;;;;;;22.12;62.89;100695.63;20906668;28;20114;-66
2022/08/05 20:12:36;;;;;;;3.80;1.40;;;;;;;22.11;61.99;100710.75;20905206;28;20060;-66
2022/08/05 20:22:37;;;;;;;2.35;1.35;;;;;;;22.29;60.16;100735.50;20904062;28;20045;-66
2022/08/05 20:32:41;;;;;;;;;;;;;;;22.16;59.44;100740.69;20902946;28;20064;-66
2022/08/05 20:42:45;;;;;;;3.22;1.20;;;;;;;22.09;59.51;100763.31;20903290;28;19925;-66
2022/08/05 20:52:47;;;;;;;3.78;1.20;;;;;;;21.95;60.16;100777.44;20902278;28;20056;-67
2022/08/05 21:02:54;;;;;;;3.95;1.50;;;;;;;21.84;60.68;100789.63;20902022;28;20049;-66
2022/08/05 21:12:57;;;;;;;5.32;1.23;;;;;;;21.73;61.03;100780.44;20901672;28;20405;-66
2022/08/05 21:23:14;;;;;;;5.07;1.50;;;;;;;21.64;62.41;100786.28;20900723;28;20053;-67
2022/08/05 21:33:16;;;;;;;3.30;1.30;;;;;;;21.60;63.26;100794.53;20898741;28;20053;-69
2022/08/05 21:43:23;;;;;;;4.45;1.40;;;;;;;21.52;61.74;100806.47;20899530;28;20224;-69
2022/08/05 21:53:25;;;;;;;3.97;1.58;;;;;;;21.40;60.26;100827.59;20898319;28;20057;-68
2022/08/05 22:03:28;;;;;;;5.93;1.73;;;;;;;21.45;59.71;100830.88;20897639;28;20049;-68
2022/08/05 22:13:49;;;;;;;4.32;1.92;;;;;;;21.23;61.41;100834.66;20900394;28;20048;-67
2022/08/05 22:34:41;;;;;;;5.03;1.50;;;;;;;20.96;62.92;100871.56;20898604;28;20052;-68
2022/08/05 22:44:42;;;;;;;4.80;1.77;;;;;;;20.83;63.15;100878.44;20898783;28;20048;-68
2022/08/05 22:54:56;;;;;;;3.20;1.55;;;;;;;20.64;63.75;100894.47;20897101;28;20049;-67
2022/08/05 23:04:58;;;;;;;5.68;1.95;;;;;;;20.39;64.17;100909.91;20895269;28;20075;-68
2022/08/05 23:15:02;;;;;;;4.83;1.80;;;;;;;20.35;63.84;100914.50;20897970;28;20454;-68
2022/08/05 23:25:09;;;;;;;4.15;1.60;;;;;;;20.43;63.58;100928.28;20897422;28;20464;-67
2022/08/05 23:35:11;;;;;;;6.53;2.25;;;;;;;20.30;64.51;100945.75;20896133;28;20414;-68
2022/08/05 23:45:12;;;;;;;4.65;1.70;;;;;;;20.08;65.37;100969.84;20895337;28;20044;-67
2022/08/05 23:55:16;;;;;;;5.05;1.73;;;;;;;19.96;66.23;100975.72;20894912;28;20701;-67
